sensor_id;sensor_type;location;lat;lon;timestamp;temperature;humidity
41644;DHT22;44236;48.098;11.582;2023-05-16T00:01:57;19.80;57.30
41644;DHT22;44236;48.098;11.582;2023-05-16T00:04:23;19.80;57.20
41644;DHT22;44236;48.098;11.582;2023-05-16T00:06:50;19.80;57.20
41644;DHT22;44236;48.098;11.582;2023-05-16T00:09:15;19.80;57.20
41644;DHT22;44236;48.098;11.582;2023-05-16T00:11:41;19.80;57.30
41644;DHT22;44236;48.098;11.582;2023-05-16T00:14:07;19.70;57.40
41644;DHT22;44236;48.098;11.582;2023-05-16T00:16:33;19.70;57.30
41644;DHT22;44236;48.098;11.582;2023-05-16T00:19:03;19.70;57.40
41644;DHT22;44236;48.098;11.582;2023-05-16T00:21:29;19.70;57.20
41644;DHT22;44236;48.098;11.582;2023-05-16T00:23:59;19.70;57.40
41644;DHT22;44236;48.098;11.582;2023-05-16T00:26:26;19.70;57.30
41644;DHT22;44236;48.098;11.582;2023-05-16T00:28:52;19.70;57.10
41644;DHT22;44236;48.098;11.582;2023-05-16T00:31:17;19.70;57.30
41644;DHT22;44236;48.098;11.582;2023-05-16T00:33:46;19.70;57.30
41644;DHT22;44236;48.098;11.582;2023-05-16T00:36:12;19.60;57.20
41644;DHT22;44236;48.098;11.582;2023-05-16T00:38:38;19.70;57.10
41644;DHT22;44236;48.098;11.582;2023-05-16T00:41:04;19.70;57.30
41644;DHT22;44236;48.098;11.582;2023-05-16T00:43:29;19.70;57.30
41644;DHT22;44236;48.098;11.582;2023-05-16T00:45:55;19.70;57.40
41644;DHT22;44236;48.098;11.582;2023-05-16T00:48:22;19.70;57.00
41644;DHT22;44236;48.098;11.582;2023-05-16T00:50:48;19.70;56.90
41644;DHT22;44236;48.098;11.582;2023-05-16T00:53:14;19.70;57.00
41644;DHT22;44236;48.098;11.582;2023-05-16T00:55:40;19.60;57.00
41644;DHT22;44236;48.098;11.582;2023-05-16T00:58:06;19.60;57.20
41644;DHT22;44236;48.098;11.582;2023-05-16T01:00:31;19.60;57.00
41644;DHT22;44236;48.098;11.582;2023-05-16T01:02:58;19.60;57.10
41644;DHT22;44236;48.098;11.582;2023-05-16T01:05:24;19.60;57.00
41644;DHT22;44236;48.098;11.582;2023-05-16T01:07:50;19.60;57.10
41644;DHT22;44236;48.098;11.582;2023-05-16T01:10:16;19.60;57.10
41644;DHT22;44236;48.098;11.582;2023-05-16T01:12:56;19.60;56.90
41644;DHT22;44236;48.098;11.582;2023-05-16T01:15:31;19.60;57.30
41644;DHT22;44236;48.098;11.582;2023-05-16T01:18:10;19.60;57.00
41644;DHT22;44236;48.098;11.582;2023-05-16T01:23:22;19.60;57.10
41644;DHT22;44236;48.098;11.582;2023-05-16T01:28:38;19.60;56.90
41644;DHT22;44236;48.098;11.582;2023-05-16T01:31:04;19.60;57.10
41644;DHT22;44236;48.098;11.582;2023-05-16T01:33:30;19.60;57.00
41644;DHT22;44236;48.098;11.582;2023-05-16T01:39:08;19.60;57.00
41644;DHT22;44236;48.098;11.582;2023-05-16T01:44:15;19.60;57.20
41644;DHT22;44236;48.098;11.582;2023-05-16T01:46:44;19.60;57.10
41644;DHT22;44236;48.098;11.582;2023-05-16T01:49:25;19.60;57.00
41644;DHT22;44236;48.098;11.582;2023-05-16T01:52:00;19.50;57.10
41644;DHT22;44236;48.098;11.582;2023-05-16T01:54:30;19.50;57.10
41644;DHT22;44236;48.098;11.582;2023-05-16T01:56:56;19.60;57.00
41644;DHT22;44236;48.098;11.582;2023-05-16T01:59:23;19.50;57.00
41644;DHT22;44236;48.098;11.582;2023-05-16T02:02:01;19.50;57.10
41644;DHT22;44236;48.098;11.582;2023-05-16T02:04:27;19.50;57.10
41644;DHT22;44236;48.098;11.582;2023-05-16T02:06:52;19.50;57.00
41644;DHT22;44236;48.098;11.582;2023-05-16T02:09:18;19.50;57.10
41644;DHT22;44236;48.098;11.582;2023-05-16T02:11:43;19.50;57.00
41644;DHT22;44236;48.098;11.582;2023-05-16T02:14:10;19.50;57.10
41644;DHT22;44236;48.098;11.582;2023-05-16T02:16:36;19.50;57.10
41644;DHT22;44236;48.098;11.582;2023-05-16T02:19:02;19.50;57.10
41644;DHT22;44236;48.098;11.582;2023-05-16T02:21:27;19.50;56.90
41644;DHT22;44236;48.098;11.582;2023-05-16T02:23:53;19.50;57.10
41644;DHT22;44236;48.098;11.582;2023-05-16T02:26:19;19.50;56.70
41644;DHT22;44236;48.098;11.582;2023-05-16T02:28:45;19.40;56.90
41644;DHT22;44236;48.098;11.582;2023-05-16T02:31:10;19.50;57.10
41644;DHT22;44236;48.098;11.582;2023-05-16T02:33:36;19.50;56.80
41644;DHT22;44236;48.098;11.582;2023-05-16T02:36:01;19.50;56.90
41644;DHT22;44236;48.098;11.582;2023-05-16T02:38:27;19.40;56.90
41644;DHT22;44236;48.098;11.582;2023-05-16T02:40:53;19.50;56.90
41644;DHT22;44236;48.098;11.582;2023-05-16T02:43:19;19.50;56.90
41644;DHT22;44236;48.098;11.582;2023-05-16T02:45:44;19.50;56.90
41644;DHT22;44236;48.098;11.582;2023-05-16T02:48:10;19.40;56.90
41644;DHT22;44236;48.098;11.582;2023-05-16T02:50:36;19.50;57.00
41644;DHT22;44236;48.098;11.582;2023-05-16T02:53:04;19.50;56.80
41644;DHT22;44236;48.098;11.582;2023-05-16T02:55:30;19.40;56.80
41644;DHT22;44236;48.098;11.582;2023-05-16T02:57:55;19.40;56.80
41644;DHT22;44236;48.098;11.582;2023-05-16T03:00:21;19.40;56.90
41644;DHT22;44236;48.098;11.582;2023-05-16T03:02:47;19.40;56.90
41644;DHT22;44236;48.098;11.582;2023-05-16T03:05:13;19.40;56.90
41644;DHT22;44236;48.098;11.582;2023-05-16T03:07:39;19.40;56.80
41644;DHT22;44236;48.098;11.582;2023-05-16T03:10:05;19.40;56.80
41644;DHT22;44236;48.098;11.582;2023-05-16T03:12:31;19.40;56.80
41644;DHT22;44236;48.098;11.582;2023-05-16T03:14:57;19.40;56.90
41644;DHT22;44236;48.098;11.582;2023-05-16T03:17:22;19.40;56.90
41644;DHT22;44236;48.098;11.582;2023-05-16T03:19:48;19.40;56.90
41644;DHT22;44236;48.098;11.582;2023-05-16T03:22:14;19.40;56.80
41644;DHT22;44236;48.098;11.582;2023-05-16T03:24:39;19.40;56.90
41644;DHT22;44236;48.098;11.582;2023-05-16T03:27:05;19.40;56.70
41644;DHT22;44236;48.098;11.582;2023-05-16T03:29:31;19.40;56.90
41644;DHT22;44236;48.098;11.582;2023-05-16T03:31:57;19.30;56.70
41644;DHT22;44236;48.098;11.582;2023-05-16T03:34:22;19.40;56.70
41644;DHT22;44236;48.098;11.582;2023-05-16T03:36:49;19.30;56.70
41644;DHT22;44236;48.098;11.582;2023-05-16T03:39:15;19.30;56.80
41644;DHT22;44236;48.098;11.582;2023-05-16T03:41:41;19.30;56.80
41644;DHT22;44236;48.098;11.582;2023-05-16T03:44:07;19.30;56.80
41644;DHT22;44236;48.098;11.582;2023-05-16T03:46:34;19.30;56.80
41644;DHT22;44236;48.098;11.582;2023-05-16T03:49:00;19.30;56.80
41644;DHT22;44236;48.098;11.582;2023-05-16T03:51:25;19.30;56.80
41644;DHT22;44236;48.098;11.582;2023-05-16T03:53:51;19.40;56.80
41644;DHT22;44236;48.098;11.582;2023-05-16T03:56:17;19.30;57.00
41644;DHT22;44236;48.098;11.582;2023-05-16T03:58:42;19.30;56.70
41644;DHT22;44236;48.098;11.582;2023-05-16T04:01:08;19.30;56.60
41644;DHT22;44236;48.098;11.582;2023-05-16T04:03:34;19.30;56.90
41644;DHT22;44236;48.098;11.582;2023-05-16T04:06:00;19.30;56.90
41644;DHT22;44236;48.098;11.582;2023-05-16T04:08:26;19.30;56.70
41644;DHT22;44236;48.098;11.582;2023-05-16T04:10:52;19.30;56.80
41644;DHT22;44236;48.098;11.582;2023-05-16T04:13:17;19.30;56.80
41644;DHT22;44236;48.098;11.582;2023-05-16T04:15:43;19.30;56.60
41644;DHT22;44236;48.098;11.582;2023-05-16T04:18:08;19.30;56.70
41644;DHT22;44236;48.098;11.582;2023-05-16T04:20:35;19.30;56.60
41644;DHT22;44236;48.098;11.582;2023-05-16T04:23:01;19.20;56.60
41644;DHT22;44236;48.098;11.582;2023-05-16T04:25:27;19.30;56.90
41644;DHT22;44236;48.098;11.582;2023-05-16T04:27:52;19.30;57.30
41644;DHT22;44236;48.098;11.582;2023-05-16T04:30:18;19.30;56.70
41644;DHT22;44236;48.098;11.582;2023-05-16T04:32:44;19.30;56.70
41644;DHT22;44236;48.098;11.582;2023-05-16T04:35:09;19.30;56.80
41644;DHT22;44236;48.098;11.582;2023-05-16T04:37:35;19.30;56.60
41644;DHT22;44236;48.098;11.582;2023-05-16T04:40:01;19.30;56.40
41644;DHT22;44236;48.098;11.582;2023-05-16T04:42:27;19.40;56.30
41644;DHT22;44236;48.098;11.582;2023-05-16T04:44:53;19.40;56.10
41644;DHT22;44236;48.098;11.582;2023-05-16T04:47:18;19.50;56.10
41644;DHT22;44236;48.098;11.582;2023-05-16T04:49:44;19.50;55.70
41644;DHT22;44236;48.098;11.582;2023-05-16T04:52:10;19.50;55.30
41644;DHT22;44236;48.098;11.582;2023-05-16T04:54:37;19.60;55.30
41644;DHT22;44236;48.098;11.582;2023-05-16T04:57:03;19.60;55.80
41644;DHT22;44236;48.098;11.582;2023-05-16T04:59:29;19.60;56.10
41644;DHT22;44236;48.098;11.582;2023-05-16T05:01:55;19.60;55.70
41644;DHT22;44236;48.098;11.582;2023-05-16T05:04:20;19.60;56.10
41644;DHT22;44236;48.098;11.582;2023-05-16T05:06:47;19.30;54.10
41644;DHT22;44236;48.098;11.582;2023-05-16T05:09:12;19.00;55.30
41644;DHT22;44236;48.098;11.582;2023-05-16T05:11:38;18.80;57.00
41644;DHT22;44236;48.098;11.582;2023-05-16T05:14:04;18.80;56.50
41644;DHT22;44236;48.098;11.582;2023-05-16T05:16:29;19.00;56.80
41644;DHT22;44236;48.098;11.582;2023-05-16T05:18:55;19.10;56.10
41644;DHT22;44236;48.098;11.582;2023-05-16T05:21:21;19.20;56.10
41644;DHT22;44236;48.098;11.582;2023-05-16T05:23:49;19.30;55.60
41644;DHT22;44236;48.098;11.582;2023-05-16T05:26:16;19.40;55.50
41644;DHT22;44236;48.098;11.582;2023-05-16T05:28:42;19.40;55.40
41644;DHT22;44236;48.098;11.582;2023-05-16T05:31:07;19.50;55.40
41644;DHT22;44236;48.098;11.582;2023-05-16T05:33:33;19.50;55.30
41644;DHT22;44236;48.098;11.582;2023-05-16T05:35:59;19.50;55.90
41644;DHT22;44236;48.098;11.582;2023-05-16T05:38:24;19.50;55.50
41644;DHT22;44236;48.098;11.582;2023-05-16T05:40:50;19.50;55.70
41644;DHT22;44236;48.098;11.582;2023-05-16T05:43:16;19.40;55.90
41644;DHT22;44236;48.098;11.582;2023-05-16T05:45:42;19.40;55.90
41644;DHT22;44236;48.098;11.582;2023-05-16T05:48:08;19.50;56.10
41644;DHT22;44236;48.098;11.582;2023-05-16T05:50:35;19.50;56.80
41644;DHT22;44236;48.098;11.582;2023-05-16T05:53:02;19.50;55.70
41644;DHT22;44236;48.098;11.582;2023-05-16T05:55:27;19.60;55.40
41644;DHT22;44236;48.098;11.582;2023-05-16T05:57:53;19.60;55.30
41644;DHT22;44236;48.098;11.582;2023-05-16T06:00:19;19.60;55.10
41644;DHT22;44236;48.098;11.582;2023-05-16T06:02:44;19.60;55.00
41644;DHT22;44236;48.098;11.582;2023-05-16T06:05:10;19.70;55.40
41644;DHT22;44236;48.098;11.582;2023-05-16T06:07:35;19.60;56.30
41644;DHT22;44236;48.098;11.582;2023-05-16T06:10:01;19.60;56.10
41644;DHT22;44236;48.098;11.582;2023-05-16T06:12:29;19.60;55.70
41644;DHT22;44236;48.098;11.582;2023-05-16T06:14:55;19.60;55.50
41644;DHT22;44236;48.098;11.582;2023-05-16T06:17:21;19.70;56.50
41644;DHT22;44236;48.098;11.582;2023-05-16T06:19:46;19.70;56.40
41644;DHT22;44236;48.098;11.582;2023-05-16T06:22:12;19.70;56.00
41644;DHT22;44236;48.098;11.582;2023-05-16T06:24:37;19.70;56.70
41644;DHT22;44236;48.098;11.582;2023-05-16T06:27:03;19.70;55.50
41644;DHT22;44236;48.098;11.582;2023-05-16T06:29:29;19.70;55.80
41644;DHT22;44236;48.098;11.582;2023-05-16T06:31:55;19.70;55.90
41644;DHT22;44236;48.098;11.582;2023-05-16T06:34:20;19.70;55.80
41644;DHT22;44236;48.098;11.582;2023-05-16T06:36:52;19.70;55.70
41644;DHT22;44236;48.098;11.582;2023-05-16T06:39:17;19.70;55.60
41644;DHT22;44236;48.098;11.582;2023-05-16T06:41:43;19.70;55.80
41644;DHT22;44236;48.098;11.582;2023-05-16T06:44:10;19.70;55.70
41644;DHT22;44236;48.098;11.582;2023-05-16T06:46:35;19.70;56.00
41644;DHT22;44236;48.098;11.582;2023-05-16T06:49:02;19.70;55.80
41644;DHT22;44236;48.098;11.582;2023-05-16T06:51:29;19.70;55.70
41644;DHT22;44236;48.098;11.582;2023-05-16T06:53:55;19.70;55.80
41644;DHT22;44236;48.098;11.582;2023-05-16T06:56:21;19.70;55.90
41644;DHT22;44236;48.098;11.582;2023-05-16T06:58:46;19.70;55.90
41644;DHT22;44236;48.098;11.582;2023-05-16T07:01:14;19.70;56.10
41644;DHT22;44236;48.098;11.582;2023-05-16T07:03:39;19.70;56.20
41644;DHT22;44236;48.098;11.582;2023-05-16T07:06:05;19.70;55.90
41644;DHT22;44236;48.098;11.582;2023-05-16T07:08:31;19.70;55.90
41644;DHT22;44236;48.098;11.582;2023-05-16T07:10:57;19.70;56.10
41644;DHT22;44236;48.098;11.582;2023-05-16T07:13:23;19.70;56.10
41644;DHT22;44236;48.098;11.582;2023-05-16T07:15:48;19.70;56.10
41644;DHT22;44236;48.098;11.582;2023-05-16T07:18:14;19.70;56.10
41644;DHT22;44236;48.098;11.582;2023-05-16T07:20:40;19.70;56.20
41644;DHT22;44236;48.098;11.582;2023-05-16T07:23:05;19.70;56.30
41644;DHT22;44236;48.098;11.582;2023-05-16T07:25:31;19.70;56.10
41644;DHT22;44236;48.098;11.582;2023-05-16T07:27:57;19.70;56.50
41644;DHT22;44236;48.098;11.582;2023-05-16T07:30:23;19.70;56.20
41644;DHT22;44236;48.098;11.582;2023-05-16T07:32:48;19.70;56.00
41644;DHT22;44236;48.098;11.582;2023-05-16T07:35:14;19.70;56.20
41644;DHT22;44236;48.098;11.582;2023-05-16T07:37:40;19.70;56.10
41644;DHT22;44236;48.098;11.582;2023-05-16T07:40:08;19.70;56.10
41644;DHT22;44236;48.098;11.582;2023-05-16T07:42:34;19.70;56.10
41644;DHT22;44236;48.098;11.582;2023-05-16T07:45:00;19.70;56.10
41644;DHT22;44236;48.098;11.582;2023-05-16T07:47:26;19.70;56.20
41644;DHT22;44236;48.098;11.582;2023-05-16T07:49:52;19.70;56.30
41644;DHT22;44236;48.098;11.582;2023-05-16T07:52:18;19.70;56.20
41644;DHT22;44236;48.098;11.582;2023-05-16T07:54:45;19.70;56.00
41644;DHT22;44236;48.098;11.582;2023-05-16T07:57:13;19.70;56.20
41644;DHT22;44236;48.098;11.582;2023-05-16T07:59:39;19.70;56.80
41644;DHT22;44236;48.098;11.582;2023-05-16T08:02:05;19.70;55.90
41644;DHT22;44236;48.098;11.582;2023-05-16T08:04:30;19.70;56.30
41644;DHT22;44236;48.098;11.582;2023-05-16T08:06:56;19.70;56.10
41644;DHT22;44236;48.098;11.582;2023-05-16T08:09:22;19.70;56.10
41644;DHT22;44236;48.098;11.582;2023-05-16T08:11:48;19.70;56.30
41644;DHT22;44236;48.098;11.582;2023-05-16T08:14:13;19.70;56.10
41644;DHT22;44236;48.098;11.582;2023-05-16T08:16:39;19.70;56.70
41644;DHT22;44236;48.098;11.582;2023-05-16T08:19:05;19.70;56.10
41644;DHT22;44236;48.098;11.582;2023-05-16T08:21:31;19.70;56.20
41644;DHT22;44236;48.098;11.582;2023-05-16T08:23:57;19.70;56.20
41644;DHT22;44236;48.098;11.582;2023-05-16T08:26:23;19.60;56.10
41644;DHT22;44236;48.098;11.582;2023-05-16T08:28:49;19.60;55.90
41644;DHT22;44236;48.098;11.582;2023-05-16T08:31:14;19.60;56.10
41644;DHT22;44236;48.098;11.582;2023-05-16T08:33:40;19.60;56.00
41644;DHT22;44236;48.098;11.582;2023-05-16T08:36:08;19.60;56.00
41644;DHT22;44236;48.098;11.582;2023-05-16T08:38:33;19.60;56.20
41644;DHT22;44236;48.098;11.582;2023-05-16T08:40:59;19.60;56.10
41644;DHT22;44236;48.098;11.582;2023-05-16T08:43:24;19.60;55.70
41644;DHT22;44236;48.098;11.582;2023-05-16T08:45:50;19.60;56.30
41644;DHT22;44236;48.098;11.582;2023-05-16T08:48:20;19.60;56.20
41644;DHT22;44236;48.098;11.582;2023-05-16T08:50:47;19.70;56.10
41644;DHT22;44236;48.098;11.582;2023-05-16T08:53:14;19.60;56.20
41644;DHT22;44236;48.098;11.582;2023-05-16T08:55:43;19.70;55.70
41644;DHT22;44236;48.098;11.582;2023-05-16T08:58:11;19.60;56.00
41644;DHT22;44236;48.098;11.582;2023-05-16T09:00:37;19.60;56.10
41644;DHT22;44236;48.098;11.582;2023-05-16T09:03:04;19.60;55.80
41644;DHT22;44236;48.098;11.582;2023-05-16T09:05:30;19.60;56.50
41644;DHT22;44236;48.098;11.582;2023-05-16T09:07:57;19.60;56.30
41644;DHT22;44236;48.098;11.582;2023-05-16T09:10:22;19.60;56.10
41644;DHT22;44236;48.098;11.582;2023-05-16T09:12:48;19.60;56.30
41644;DHT22;44236;48.098;11.582;2023-05-16T09:15:16;19.60;56.10
41644;DHT22;44236;48.098;11.582;2023-05-16T09:17:44;19.60;56.40
41644;DHT22;44236;48.098;11.582;2023-05-16T09:20:12;19.60;56.30
41644;DHT22;44236;48.098;11.582;2023-05-16T09:22:38;19.60;56.40
41644;DHT22;44236;48.098;11.582;2023-05-16T09:25:05;19.60;56.30
41644;DHT22;44236;48.098;11.582;2023-05-16T09:27:31;19.60;56.50
41644;DHT22;44236;48.098;11.582;2023-05-16T09:29:58;19.60;56.40
41644;DHT22;44236;48.098;11.582;2023-05-16T09:32:24;19.60;56.50
41644;DHT22;44236;48.098;11.582;2023-05-16T09:34:52;19.60;56.40
41644;DHT22;44236;48.098;11.582;2023-05-16T09:37:18;19.60;56.40
41644;DHT22;44236;48.098;11.582;2023-05-16T09:39:49;19.60;56.40
41644;DHT22;44236;48.098;11.582;2023-05-16T09:42:15;19.60;56.60
41644;DHT22;44236;48.098;11.582;2023-05-16T09:44:46;19.60;56.50
41644;DHT22;44236;48.098;11.582;2023-05-16T09:47:14;19.60;56.60
41644;DHT22;44236;48.098;11.582;2023-05-16T09:49:41;19.60;56.40
41644;DHT22;44236;48.098;11.582;2023-05-16T09:52:06;19.60;56.40
41644;DHT22;44236;48.098;11.582;2023-05-16T09:54:33;19.60;56.50
41644;DHT22;44236;48.098;11.582;2023-05-16T09:56:59;19.60;56.50
41644;DHT22;44236;48.098;11.582;2023-05-16T09:59:30;19.60;56.60
41644;DHT22;44236;48.098;11.582;2023-05-16T10:01:58;19.60;56.60
41644;DHT22;44236;48.098;11.582;2023-05-16T10:04:25;19.60;56.70
41644;DHT22;44236;48.098;11.582;2023-05-16T10:06:51;19.60;56.70
41644;DHT22;44236;48.098;11.582;2023-05-16T10:09:18;19.60;56.70
41644;DHT22;44236;48.098;11.582;2023-05-16T10:11:45;19.60;56.80
41644;DHT22;44236;48.098;11.582;2023-05-16T10:14:13;19.60;56.80
41644;DHT22;44236;48.098;11.582;2023-05-16T10:16:42;19.60;56.70
41644;DHT22;44236;48.098;11.582;2023-05-16T10:19:08;19.60;56.60
41644;DHT22;44236;48.098;11.582;2023-05-16T10:21:36;19.60;56.60
41644;DHT22;44236;48.098;11.582;2023-05-16T10:24:06;19.60;56.70
41644;DHT22;44236;48.098;11.582;2023-05-16T10:26:32;19.60;56.80
41644;DHT22;44236;48.098;11.582;2023-05-16T10:29:00;19.60;56.80
41644;DHT22;44236;48.098;11.582;2023-05-16T10:31:27;19.60;56.80
41644;DHT22;44236;48.098;11.582;2023-05-16T10:33:55;19.60;56.90
41644;DHT22;44236;48.098;11.582;2023-05-16T10:36:22;19.60;56.80
41644;DHT22;44236;48.098;11.582;2023-05-16T10:38:48;19.60;56.80
41644;DHT22;44236;48.098;11.582;2023-05-16T10:41:15;19.60;56.90
41644;DHT22;44236;48.098;11.582;2023-05-16T10:43:44;19.60;56.80
41644;DHT22;44236;48.098;11.582;2023-05-16T10:46:10;19.60;57.00
41644;DHT22;44236;48.098;11.582;2023-05-16T10:48:40;19.60;57.00
41644;DHT22;44236;48.098;11.582;2023-05-16T10:53:50;19.50;56.90
41644;DHT22;44236;48.098;11.582;2023-05-16T10:56:22;19.50;56.90
41644;DHT22;44236;48.098;11.582;2023-05-16T10:58:48;19.60;57.00
41644;DHT22;44236;48.098;11.582;2023-05-16T11:04:00;19.50;56.80
41644;DHT22;44236;48.098;11.582;2023-05-16T11:11:47;19.50;57.10
41644;DHT22;44236;48.098;11.582;2023-05-16T11:17:14;19.50;56.90
41644;DHT22;44236;48.098;11.582;2023-05-16T11:19:47;19.60;56.90
41644;DHT22;44236;48.098;11.582;2023-05-16T11:27:31;19.50;56.90
41644;DHT22;44236;48.098;11.582;2023-05-16T11:32:36;19.50;57.20
41644;DHT22;44236;48.098;11.582;2023-05-16T11:35:06;19.50;56.90
41644;DHT22;44236;48.098;11.582;2023-05-16T11:37:33;19.50;57.00
41644;DHT22;44236;48.098;11.582;2023-05-16T11:40:02;19.50;56.90
41644;DHT22;44236;48.098;11.582;2023-05-16T11:42:40;19.50;56.90
41644;DHT22;44236;48.098;11.582;2023-05-16T11:45:11;19.50;57.10
41644;DHT22;44236;48.098;11.582;2023-05-16T11:47:38;19.50;57.10
41644;DHT22;44236;48.098;11.582;2023-05-16T11:50:10;19.50;57.10
41644;DHT22;44236;48.098;11.582;2023-05-16T11:52:36;19.50;57.10
41644;DHT22;44236;48.098;11.582;2023-05-16T11:55:06;19.50;57.10
41644;DHT22;44236;48.098;11.582;2023-05-16T11:57:32;19.50;57.00
41644;DHT22;44236;48.098;11.582;2023-05-16T12:00:22;19.50;57.00
41644;DHT22;44236;48.098;11.582;2023-05-16T12:02:49;19.50;57.00
41644;DHT22;44236;48.098;11.582;2023-05-16T12:05:16;19.50;57.00
41644;DHT22;44236;48.098;11.582;2023-05-16T12:07:43;19.50;57.10
41644;DHT22;44236;48.098;11.582;2023-05-16T12:10:16;19.50;57.00
41644;DHT22;44236;48.098;11.582;2023-05-16T12:12:44;19.50;56.90
41644;DHT22;44236;48.098;11.582;2023-05-16T12:15:11;19.50;57.00
41644;DHT22;44236;48.098;11.582;2023-05-16T12:17:38;19.50;57.20
41644;DHT22;44236;48.098;11.582;2023-05-16T12:20:05;19.50;57.10
41644;DHT22;44236;48.098;11.582;2023-05-16T12:22:32;19.50;57.10
41644;DHT22;44236;48.098;11.582;2023-05-16T12:24:59;19.50;57.10
41644;DHT22;44236;48.098;11.582;2023-05-16T12:27:25;19.50;57.00
41644;DHT22;44236;48.098;11.582;2023-05-16T12:29:51;19.50;57.10
41644;DHT22;44236;48.098;11.582;2023-05-16T12:32:18;19.50;57.20
41644;DHT22;44236;48.098;11.582;2023-05-16T12:34:51;19.50;57.10
41644;DHT22;44236;48.098;11.582;2023-05-16T12:37:17;19.50;57.20
41644;DHT22;44236;48.098;11.582;2023-05-16T12:39:44;19.50;57.10
41644;DHT22;44236;48.098;11.582;2023-05-16T12:42:13;19.50;57.10
41644;DHT22;44236;48.098;11.582;2023-05-16T12:44:39;19.50;57.10
41644;DHT22;44236;48.098;11.582;2023-05-16T12:47:12;19.50;57.00
41644;DHT22;44236;48.098;11.582;2023-05-16T12:49:45;19.50;57.10
41644;DHT22;44236;48.098;11.582;2023-05-16T12:52:17;19.50;57.10
41644;DHT22;44236;48.098;11.582;2023-05-16T12:54:44;19.50;57.10
41644;DHT22;44236;48.098;11.582;2023-05-16T12:57:09;19.50;57.10
41644;DHT22;44236;48.098;11.582;2023-05-16T12:59:35;19.60;57.20
41644;DHT22;44236;48.098;11.582;2023-05-16T13:02:01;19.50;57.10
41644;DHT22;44236;48.098;11.582;2023-05-16T13:04:28;19.50;57.10
41644;DHT22;44236;48.098;11.582;2023-05-16T13:06:54;19.50;57.10
41644;DHT22;44236;48.098;11.582;2023-05-16T13:09:20;19.50;57.10
41644;DHT22;44236;48.098;11.582;2023-05-16T13:11:46;19.60;57.20
41644;DHT22;44236;48.098;11.582;2023-05-16T13:14:12;19.50;57.20
41644;DHT22;44236;48.098;11.582;2023-05-16T13:16:38;19.50;57.30
41644;DHT22;44236;48.098;11.582;2023-05-16T13:19:03;19.50;57.50
41644;DHT22;44236;48.098;11.582;2023-05-16T13:21:29;19.50;57.30
41644;DHT22;44236;48.098;11.582;2023-05-16T13:23:56;19.50;57.50
41644;DHT22;44236;48.098;11.582;2023-05-16T13:26:23;19.60;57.40
41644;DHT22;44236;48.098;11.582;2023-05-16T13:28:48;19.50;57.30
41644;DHT22;44236;48.098;11.582;2023-05-16T13:31:17;19.50;57.30
41644;DHT22;44236;48.098;11.582;2023-05-16T13:33:43;19.50;57.80
41644;DHT22;44236;48.098;11.582;2023-05-16T13:36:09;19.50;57.20
41644;DHT22;44236;48.098;11.582;2023-05-16T13:38:35;19.50;57.30
41644;DHT22;44236;48.098;11.582;2023-05-16T13:41:00;19.50;57.20
41644;DHT22;44236;48.098;11.582;2023-05-16T13:43:26;19.50;57.30
41644;DHT22;44236;48.098;11.582;2023-05-16T13:45:52;19.50;57.40
41644;DHT22;44236;48.098;11.582;2023-05-16T13:48:17;19.50;58.00
41644;DHT22;44236;48.098;11.582;2023-05-16T13:50:43;19.50;57.60
41644;DHT22;44236;48.098;11.582;2023-05-16T13:53:09;19.50;57.70
41644;DHT22;44236;48.098;11.582;2023-05-16T13:55:35;19.50;57.80
41644;DHT22;44236;48.098;11.582;2023-05-16T13:58:01;19.50;57.60
41644;DHT22;44236;48.098;11.582;2023-05-16T14:00:27;19.50;57.70
41644;DHT22;44236;48.098;11.582;2023-05-16T14:02:53;19.50;57.60
41644;DHT22;44236;48.098;11.582;2023-05-16T14:05:19;19.50;57.70
41644;DHT22;44236;48.098;11.582;2023-05-16T14:07:45;19.50;57.70
41644;DHT22;44236;48.098;11.582;2023-05-16T14:10:10;19.50;57.70
41644;DHT22;44236;48.098;11.582;2023-05-16T14:12:36;19.50;57.80
41644;DHT22;44236;48.098;11.582;2023-05-16T14:15:03;19.50;57.70
41644;DHT22;44236;48.098;11.582;2023-05-16T14:17:29;19.50;57.70
41644;DHT22;44236;48.098;11.582;2023-05-16T14:19:55;19.50;57.60
41644;DHT22;44236;48.098;11.582;2023-05-16T14:22:20;19.50;57.60
41644;DHT22;44236;48.098;11.582;2023-05-16T14:24:46;19.50;57.60
41644;DHT22;44236;48.098;11.582;2023-05-16T14:27:11;19.50;57.60
41644;DHT22;44236;48.098;11.582;2023-05-16T14:29:39;19.50;57.50
41644;DHT22;44236;48.098;11.582;2023-05-16T14:32:05;19.50;57.40
41644;DHT22;44236;48.098;11.582;2023-05-16T14:34:31;19.50;57.40
41644;DHT22;44236;48.098;11.582;2023-05-16T14:36:57;19.50;57.50
41644;DHT22;44236;48.098;11.582;2023-05-16T14:39:24;19.50;57.50
41644;DHT22;44236;48.098;11.582;2023-05-16T14:41:50;19.50;57.50
41644;DHT22;44236;48.098;11.582;2023-05-16T14:44:16;19.50;57.60
41644;DHT22;44236;48.098;11.582;2023-05-16T14:46:42;19.50;57.50
41644;DHT22;44236;48.098;11.582;2023-05-16T14:49:08;19.40;57.40
41644;DHT22;44236;48.098;11.582;2023-05-16T14:51:33;19.50;57.30
41644;DHT22;44236;48.098;11.582;2023-05-16T14:53:59;19.50;57.30
41644;DHT22;44236;48.098;11.582;2023-05-16T14:56:25;19.50;57.40
41644;DHT22;44236;48.098;11.582;2023-05-16T14:58:52;19.40;57.20
41644;DHT22;44236;48.098;11.582;2023-05-16T15:01:18;19.50;57.70
41644;DHT22;44236;48.098;11.582;2023-05-16T15:03:44;19.40;57.20
41644;DHT22;44236;48.098;11.582;2023-05-16T15:06:10;19.40;57.30
41644;DHT22;44236;48.098;11.582;2023-05-16T15:08:36;19.50;57.40
41644;DHT22;44236;48.098;11.582;2023-05-16T15:11:03;19.50;57.30
41644;DHT22;44236;48.098;11.582;2023-05-16T15:13:28;19.40;57.30
41644;DHT22;44236;48.098;11.582;2023-05-16T15:15:54;19.50;57.50
41644;DHT22;44236;48.098;11.582;2023-05-16T15:18:20;19.40;57.20
41644;DHT22;44236;48.098;11.582;2023-05-16T15:20:46;19.40;57.20
41644;DHT22;44236;48.098;11.582;2023-05-16T15:23:11;19.40;57.50
41644;DHT22;44236;48.098;11.582;2023-05-16T15:25:37;19.40;57.50
41644;DHT22;44236;48.098;11.582;2023-05-16T15:28:03;19.50;57.50
41644;DHT22;44236;48.098;11.582;2023-05-16T15:30:29;19.40;57.40
41644;DHT22;44236;48.098;11.582;2023-05-16T15:32:55;19.40;57.40
41644;DHT22;44236;48.098;11.582;2023-05-16T15:35:20;19.40;57.40
41644;DHT22;44236;48.098;11.582;2023-05-16T15:37:46;19.40;57.60
41644;DHT22;44236;48.098;11.582;2023-05-16T15:40:12;19.30;57.60
41644;DHT22;44236;48.098;11.582;2023-05-16T15:42:38;19.20;58.20
41644;DHT22;44236;48.098;11.582;2023-05-16T15:45:04;19.20;58.20